Loebau, Texas
Current Conditions -  °F | °C
As of 11:35 AM on Thursday 25 Dec 2014 (Local Time) from KGYB Reporting Station
Clear Clear  
Wind Chill: 58°   Ceiling: Unl
Heat Index: 58°   Visibility: 10mi
Dew Point: 36°   Wind: 12mph
Humidity: 44%   Direction: 190°S
Pressure: 30.14"   Gusts: 23mph
Location:  30.3175°N, 96.9747°W
Report Text: KGYB 251735Z AUTO 19010G20KT 10SM CLR 14/02 A3014 RMK AO2 T01430023
Loading
Personal Weather Stations






























Interactive Weather Map New forecast layout! Learn more

10-Day Weather Forecast

Advertisements
Track Severe Weather on mobile